sensor_id;sensor_type;location;lat;lon;timestamp;P1;durP1;ratioP1;P2;durP2;ratioP2
36551;SDS011;22559;54.176;12.102;2023-04-15T00:00:26;70.20;;;27.27;;
36551;SDS011;22559;54.176;12.102;2023-04-15T00:02:53;64.17;;;27.63;;
36551;SDS011;22559;54.176;12.102;2023-04-15T00:05:19;55.10;;;24.87;;
36551;SDS011;22559;54.176;12.102;2023-04-15T00:07:45;69.90;;;28.37;;
36551;SDS011;22559;54.176;12.102;2023-04-15T00:10:11;60.90;;;25.20;;
36551;SDS011;22559;54.176;12.102;2023-04-15T00:12:38;59.13;;;27.27;;
36551;SDS011;22559;54.176;12.102;2023-04-15T00:15:04;74.90;;;28.43;;
36551;SDS011;22559;54.176;12.102;2023-04-15T00:17:30;56.67;;;25.60;;
36551;SDS011;22559;54.176;12.102;2023-04-15T00:19:56;63.90;;;27.30;;
36551;SDS011;22559;54.176;12.102;2023-04-15T00:22:23;73.20;;;27.07;;
36551;SDS011;22559;54.176;12.102;2023-04-15T00:24:51;68.50;;;28.47;;
36551;SDS011;22559;54.176;12.102;2023-04-15T00:27:17;63.80;;;26.27;;
36551;SDS011;22559;54.176;12.102;2023-04-15T00:29:43;83.90;;;30.43;;
36551;SDS011;22559;54.176;12.102;2023-04-15T00:32:09;64.00;;;26.03;;
36551;SDS011;22559;54.176;12.102;2023-04-15T00:34:35;69.47;;;28.47;;
36551;SDS011;22559;54.176;12.102;2023-04-15T00:37:00;65.30;;;27.43;;
36551;SDS011;22559;54.176;12.102;2023-04-15T00:39:26;53.20;;;24.97;;
36551;SDS011;22559;54.176;12.102;2023-04-15T00:41:52;58.07;;;27.13;;
36551;SDS011;22559;54.176;12.102;2023-04-15T00:44:18;65.90;;;28.33;;
36551;SDS011;22559;54.176;12.102;2023-04-15T00:46:44;58.37;;;27.67;;
36551;SDS011;22559;54.176;12.102;2023-04-15T00:49:10;62.93;;;28.43;;
36551;SDS011;22559;54.176;12.102;2023-04-15T00:51:37;66.77;;;28.37;;
36551;SDS011;22559;54.176;12.102;2023-04-15T00:54:03;66.73;;;28.13;;
36551;SDS011;22559;54.176;12.102;2023-04-15T00:56:29;63.30;;;28.00;;
36551;SDS011;22559;54.176;12.102;2023-04-15T00:58:56;73.07;;;30.57;;
36551;SDS011;22559;54.176;12.102;2023-04-15T01:01:23;62.03;;;28.07;;
36551;SDS011;22559;54.176;12.102;2023-04-15T01:03:50;81.80;;;30.43;;
36551;SDS011;22559;54.176;12.102;2023-04-15T01:06:16;72.20;;;31.20;;
36551;SDS011;22559;54.176;12.102;2023-04-15T01:08:42;73.70;;;30.10;;
36551;SDS011;22559;54.176;12.102;2023-04-15T01:11:09;77.70;;;30.90;;
36551;SDS011;22559;54.176;12.102;2023-04-15T01:13:36;69.13;;;28.27;;
36551;SDS011;22559;54.176;12.102;2023-04-15T01:16:02;73.40;;;30.97;;
36551;SDS011;22559;54.176;12.102;2023-04-15T01:18:28;80.80;;;30.40;;
36551;SDS011;22559;54.176;12.102;2023-04-15T01:20:54;89.87;;;31.60;;
36551;SDS011;22559;54.176;12.102;2023-04-15T01:23:20;84.63;;;31.53;;
36551;SDS011;22559;54.176;12.102;2023-04-15T01:25:50;76.70;;;30.63;;
36551;SDS011;22559;54.176;12.102;2023-04-15T01:28:17;96.33;;;32.47;;
36551;SDS011;22559;54.176;12.102;2023-04-15T01:30:43;110.17;;;33.87;;
36551;SDS011;22559;54.176;12.102;2023-04-15T01:33:08;78.83;;;30.10;;
36551;SDS011;22559;54.176;12.102;2023-04-15T01:35:34;72.23;;;29.33;;
36551;SDS011;22559;54.176;12.102;2023-04-15T01:38:06;88.87;;;32.93;;
36551;SDS011;22559;54.176;12.102;2023-04-15T01:40:33;85.17;;;31.90;;
36551;SDS011;22559;54.176;12.102;2023-04-15T01:43:00;64.27;;;28.80;;
36551;SDS011;22559;54.176;12.102;2023-04-15T01:45:26;104.97;;;33.30;;
36551;SDS011;22559;54.176;12.102;2023-04-15T01:47:52;83.77;;;30.80;;
36551;SDS011;22559;54.176;12.102;2023-04-15T01:50:18;67.67;;;28.80;;
36551;SDS011;22559;54.176;12.102;2023-04-15T01:52:44;66.03;;;29.37;;
36551;SDS011;22559;54.176;12.102;2023-04-15T01:55:11;82.43;;;31.97;;
36551;SDS011;22559;54.176;12.102;2023-04-15T01:57:37;78.33;;;32.97;;
36551;SDS011;22559;54.176;12.102;2023-04-15T02:00:03;76.60;;;31.63;;
36551;SDS011;22559;54.176;12.102;2023-04-15T02:02:29;75.37;;;30.53;;
36551;SDS011;22559;54.176;12.102;2023-04-15T02:04:54;71.43;;;31.90;;
36551;SDS011;22559;54.176;12.102;2023-04-15T02:07:20;69.53;;;30.53;;
36551;SDS011;22559;54.176;12.102;2023-04-15T02:09:46;69.90;;;29.37;;
36551;SDS011;22559;54.176;12.102;2023-04-15T02:12:12;67.70;;;30.83;;
36551;SDS011;22559;54.176;12.102;2023-04-15T02:14:38;67.10;;;31.27;;
36551;SDS011;22559;54.176;12.102;2023-04-15T02:17:03;57.07;;;29.77;;
36551;SDS011;22559;54.176;12.102;2023-04-15T02:19:35;62.33;;;29.57;;
36551;SDS011;22559;54.176;12.102;2023-04-15T02:22:01;60.10;;;29.23;;
36551;SDS011;22559;54.176;12.102;2023-04-15T02:24:27;64.13;;;30.17;;
36551;SDS011;22559;54.176;12.102;2023-04-15T02:26:54;69.20;;;30.27;;
36551;SDS011;22559;54.176;12.102;2023-04-15T02:29:20;62.43;;;29.23;;
36551;SDS011;22559;54.176;12.102;2023-04-15T02:31:47;63.27;;;30.97;;
36551;SDS011;22559;54.176;12.102;2023-04-15T02:34:12;64.63;;;28.60;;
36551;SDS011;22559;54.176;12.102;2023-04-15T02:36:38;59.23;;;29.33;;
36551;SDS011;22559;54.176;12.102;2023-04-15T02:39:04;60.33;;;30.13;;
36551;SDS011;22559;54.176;12.102;2023-04-15T02:41:30;66.73;;;28.97;;
36551;SDS011;22559;54.176;12.102;2023-04-15T02:43:56;59.40;;;29.23;;
36551;SDS011;22559;54.176;12.102;2023-04-15T02:46:22;54.00;;;27.07;;
36551;SDS011;22559;54.176;12.102;2023-04-15T02:48:48;68.23;;;30.53;;
36551;SDS011;22559;54.176;12.102;2023-04-15T02:51:15;54.03;;;26.90;;
36551;SDS011;22559;54.176;12.102;2023-04-15T02:53:44;53.97;;;27.77;;
36551;SDS011;22559;54.176;12.102;2023-04-15T02:56:10;56.77;;;29.73;;
36551;SDS011;22559;54.176;12.102;2023-04-15T02:58:36;64.50;;;30.53;;
36551;SDS011;22559;54.176;12.102;2023-04-15T03:01:03;50.73;;;26.83;;
36551;SDS011;22559;54.176;12.102;2023-04-15T03:03:29;56.33;;;28.37;;
36551;SDS011;22559;54.176;12.102;2023-04-15T03:05:54;53.23;;;27.47;;
36551;SDS011;22559;54.176;12.102;2023-04-15T03:08:20;50.50;;;25.00;;
36551;SDS011;22559;54.176;12.102;2023-04-15T03:10:46;49.20;;;26.53;;
36551;SDS011;22559;54.176;12.102;2023-04-15T03:13:12;50.57;;;27.77;;
36551;SDS011;22559;54.176;12.102;2023-04-15T03:15:38;52.47;;;26.50;;
36551;SDS011;22559;54.176;12.102;2023-04-15T03:18:03;52.13;;;25.60;;
36551;SDS011;22559;54.176;12.102;2023-04-15T03:20:29;50.50;;;25.63;;
36551;SDS011;22559;54.176;12.102;2023-04-15T03:22:55;47.20;;;24.90;;
36551;SDS011;22559;54.176;12.102;2023-04-15T03:25:21;54.93;;;27.27;;
36551;SDS011;22559;54.176;12.102;2023-04-15T03:27:46;56.80;;;26.93;;
36551;SDS011;22559;54.176;12.102;2023-04-15T03:30:12;59.63;;;27.77;;
36551;SDS011;22559;54.176;12.102;2023-04-15T03:32:38;57.30;;;27.67;;
36551;SDS011;22559;54.176;12.102;2023-04-15T03:35:04;57.43;;;25.60;;
36551;SDS011;22559;54.176;12.102;2023-04-15T03:37:30;53.80;;;26.73;;
36551;SDS011;22559;54.176;12.102;2023-04-15T03:39:56;52.30;;;25.00;;
36551;SDS011;22559;54.176;12.102;2023-04-15T03:42:23;53.73;;;23.83;;
36551;SDS011;22559;54.176;12.102;2023-04-15T03:44:48;55.30;;;24.93;;
36551;SDS011;22559;54.176;12.102;2023-04-15T03:47:14;58.70;;;26.60;;
36551;SDS011;22559;54.176;12.102;2023-04-15T03:49:40;48.93;;;25.30;;
36551;SDS011;22559;54.176;12.102;2023-04-15T03:52:05;51.73;;;24.57;;
36551;SDS011;22559;54.176;12.102;2023-04-15T03:54:31;50.10;;;25.03;;
36551;SDS011;22559;54.176;12.102;2023-04-15T03:56:57;56.87;;;26.30;;
36551;SDS011;22559;54.176;12.102;2023-04-15T03:59:22;50.17;;;25.03;;
36551;SDS011;22559;54.176;12.102;2023-04-15T04:01:48;50.67;;;24.80;;
36551;SDS011;22559;54.176;12.102;2023-04-15T04:04:14;47.83;;;24.37;;
36551;SDS011;22559;54.176;12.102;2023-04-15T04:06:39;45.67;;;23.63;;
36551;SDS011;22559;54.176;12.102;2023-04-15T04:09:05;49.23;;;24.63;;
36551;SDS011;22559;54.176;12.102;2023-04-15T04:11:31;54.57;;;26.27;;
36551;SDS011;22559;54.176;12.102;2023-04-15T04:13:57;57.73;;;26.87;;
36551;SDS011;22559;54.176;12.102;2023-04-15T04:16:23;47.80;;;25.20;;
36551;SDS011;22559;54.176;12.102;2023-04-15T04:18:48;46.70;;;23.37;;
36551;SDS011;22559;54.176;12.102;2023-04-15T04:21:14;47.90;;;24.80;;
36551;SDS011;22559;54.176;12.102;2023-04-15T04:23:40;49.90;;;26.40;;
36551;SDS011;22559;54.176;12.102;2023-04-15T04:26:06;54.20;;;26.87;;
36551;SDS011;22559;54.176;12.102;2023-04-15T04:28:32;50.90;;;24.87;;
36551;SDS011;22559;54.176;12.102;2023-04-15T04:30:59;50.63;;;24.43;;
36551;SDS011;22559;54.176;12.102;2023-04-15T04:33:25;48.90;;;25.87;;
36551;SDS011;22559;54.176;12.102;2023-04-15T04:35:50;43.83;;;23.77;;
36551;SDS011;22559;54.176;12.102;2023-04-15T04:38:16;45.27;;;23.53;;
36551;SDS011;22559;54.176;12.102;2023-04-15T04:40:42;51.40;;;25.77;;
36551;SDS011;22559;54.176;12.102;2023-04-15T04:43:07;52.70;;;26.00;;
36551;SDS011;22559;54.176;12.102;2023-04-15T04:45:34;48.50;;;25.67;;
36551;SDS011;22559;54.176;12.102;2023-04-15T04:48:00;51.67;;;26.33;;
36551;SDS011;22559;54.176;12.102;2023-04-15T04:50:25;52.17;;;25.53;;
36551;SDS011;22559;54.176;12.102;2023-04-15T04:52:51;52.50;;;25.83;;
36551;SDS011;22559;54.176;12.102;2023-04-15T04:55:17;54.80;;;26.07;;
36551;SDS011;22559;54.176;12.102;2023-04-15T04:57:42;48.23;;;24.97;;
36551;SDS011;22559;54.176;12.102;2023-04-15T05:00:08;50.83;;;25.50;;
36551;SDS011;22559;54.176;12.102;2023-04-15T05:02:34;45.47;;;25.00;;
36551;SDS011;22559;54.176;12.102;2023-04-15T05:05:00;56.53;;;27.00;;
36551;SDS011;22559;54.176;12.102;2023-04-15T05:07:26;45.20;;;25.50;;
36551;SDS011;22559;54.176;12.102;2023-04-15T05:09:51;51.00;;;25.00;;
36551;SDS011;22559;54.176;12.102;2023-04-15T05:12:17;59.63;;;26.33;;
36551;SDS011;22559;54.176;12.102;2023-04-15T05:14:43;50.60;;;26.03;;
36551;SDS011;22559;54.176;12.102;2023-04-15T05:17:08;48.33;;;24.73;;
36551;SDS011;22559;54.176;12.102;2023-04-15T05:19:35;57.13;;;27.33;;
36551;SDS011;22559;54.176;12.102;2023-04-15T05:22:01;54.60;;;27.27;;
36551;SDS011;22559;54.176;12.102;2023-04-15T05:24:27;59.03;;;26.63;;
36551;SDS011;22559;54.176;12.102;2023-04-15T05:26:52;56.40;;;27.53;;
36551;SDS011;22559;54.176;12.102;2023-04-15T05:29:18;55.97;;;26.00;;
36551;SDS011;22559;54.176;12.102;2023-04-15T05:31:44;60.30;;;27.57;;
36551;SDS011;22559;54.176;12.102;2023-04-15T05:34:09;60.40;;;28.07;;
36551;SDS011;22559;54.176;12.102;2023-04-15T05:36:36;61.73;;;28.93;;
36551;SDS011;22559;54.176;12.102;2023-04-15T05:39:01;57.20;;;28.30;;
36551;SDS011;22559;54.176;12.102;2023-04-15T05:41:28;54.07;;;26.80;;
36551;SDS011;22559;54.176;12.102;2023-04-15T05:43:54;56.33;;;27.30;;
36551;SDS011;22559;54.176;12.102;2023-04-15T05:46:20;60.57;;;27.47;;
36551;SDS011;22559;54.176;12.102;2023-04-15T05:48:46;58.17;;;26.87;;
36551;SDS011;22559;54.176;12.102;2023-04-15T05:51:12;49.47;;;27.00;;
36551;SDS011;22559;54.176;12.102;2023-04-15T05:53:37;51.50;;;25.40;;
36551;SDS011;22559;54.176;12.102;2023-04-15T05:56:05;52.03;;;26.37;;
36551;SDS011;22559;54.176;12.102;2023-04-15T05:58:31;43.43;;;23.27;;
36551;SDS011;22559;54.176;12.102;2023-04-15T06:00:56;49.90;;;27.10;;
36551;SDS011;22559;54.176;12.102;2023-04-15T06:03:22;51.00;;;26.30;;
36551;SDS011;22559;54.176;12.102;2023-04-15T06:05:48;50.73;;;25.00;;
36551;SDS011;22559;54.176;12.102;2023-04-15T06:08:14;45.87;;;24.03;;
36551;SDS011;22559;54.176;12.102;2023-04-15T06:10:39;41.73;;;24.27;;
36551;SDS011;22559;54.176;12.102;2023-04-15T06:13:05;45.90;;;24.53;;
36551;SDS011;22559;54.176;12.102;2023-04-15T06:15:32;43.13;;;23.03;;
36551;SDS011;22559;54.176;12.102;2023-04-15T06:17:57;37.87;;;22.73;;
36551;SDS011;22559;54.176;12.102;2023-04-15T06:20:23;47.10;;;24.17;;
36551;SDS011;22559;54.176;12.102;2023-04-15T06:22:49;38.43;;;22.37;;
36551;SDS011;22559;54.176;12.102;2023-04-15T06:25:15;39.33;;;22.87;;
36551;SDS011;22559;54.176;12.102;2023-04-15T06:27:41;34.97;;;22.23;;
36551;SDS011;22559;54.176;12.102;2023-04-15T06:30:06;39.37;;;21.70;;
36551;SDS011;22559;54.176;12.102;2023-04-15T06:32:33;36.33;;;22.07;;
36551;SDS011;22559;54.176;12.102;2023-04-15T06:34:58;35.03;;;21.73;;
36551;SDS011;22559;54.176;12.102;2023-04-15T06:37:24;34.50;;;20.87;;
36551;SDS011;22559;54.176;12.102;2023-04-15T06:39:50;32.20;;;20.87;;
36551;SDS011;22559;54.176;12.102;2023-04-15T06:42:15;35.70;;;22.13;;
36551;SDS011;22559;54.176;12.102;2023-04-15T06:44:41;31.13;;;19.30;;
36551;SDS011;22559;54.176;12.102;2023-04-15T06:47:07;30.13;;;20.70;;
36551;SDS011;22559;54.176;12.102;2023-04-15T06:49:33;28.23;;;19.13;;
36551;SDS011;22559;54.176;12.102;2023-04-15T06:51:59;29.03;;;18.47;;
36551;SDS011;22559;54.176;12.102;2023-04-15T06:54:25;28.83;;;18.47;;
36551;SDS011;22559;54.176;12.102;2023-04-15T06:56:51;24.00;;;16.33;;
36551;SDS011;22559;54.176;12.102;2023-04-15T06:59:17;26.80;;;18.40;;
36551;SDS011;22559;54.176;12.102;2023-04-15T07:01:43;31.87;;;23.53;;
36551;SDS011;22559;54.176;12.102;2023-04-15T07:04:08;23.50;;;17.43;;
36551;SDS011;22559;54.176;12.102;2023-04-15T07:06:35;27.40;;;18.60;;
36551;SDS011;22559;54.176;12.102;2023-04-15T07:09:01;19.20;;;15.00;;
36551;SDS011;22559;54.176;12.102;2023-04-15T07:11:27;27.80;;;19.50;;
36551;SDS011;22559;54.176;12.102;2023-04-15T07:13:53;18.80;;;13.63;;
36551;SDS011;22559;54.176;12.102;2023-04-15T07:16:18;18.30;;;13.80;;
36551;SDS011;22559;54.176;12.102;2023-04-15T07:18:44;16.47;;;12.90;;
36551;SDS011;22559;54.176;12.102;2023-04-15T07:21:10;16.07;;;12.80;;
36551;SDS011;22559;54.176;12.102;2023-04-15T07:23:35;16.37;;;12.67;;
36551;SDS011;22559;54.176;12.102;2023-04-15T07:26:01;16.87;;;12.37;;
36551;SDS011;22559;54.176;12.102;2023-04-15T07:28:27;21.10;;;12.53;;
36551;SDS011;22559;54.176;12.102;2023-04-15T07:30:53;15.23;;;12.33;;
36551;SDS011;22559;54.176;12.102;2023-04-15T07:33:21;13.87;;;11.40;;
36551;SDS011;22559;54.176;12.102;2023-04-15T07:35:47;16.23;;;11.97;;
36551;SDS011;22559;54.176;12.102;2023-04-15T07:38:13;15.33;;;11.17;;
36551;SDS011;22559;54.176;12.102;2023-04-15T07:40:38;16.03;;;12.23;;
36551;SDS011;22559;54.176;12.102;2023-04-15T07:43:04;14.77;;;10.60;;
36551;SDS011;22559;54.176;12.102;2023-04-15T07:45:33;14.40;;;11.33;;
36551;SDS011;22559;54.176;12.102;2023-04-15T07:47:59;15.30;;;11.13;;
36551;SDS011;22559;54.176;12.102;2023-04-15T07:50:26;11.43;;;9.80;;
36551;SDS011;22559;54.176;12.102;2023-04-15T07:52:52;13.13;;;10.07;;
36551;SDS011;22559;54.176;12.102;2023-04-15T07:55:18;11.40;;;10.00;;
36551;SDS011;22559;54.176;12.102;2023-04-15T07:57:45;14.10;;;10.43;;
36551;SDS011;22559;54.176;12.102;2023-04-15T08:00:12;13.37;;;10.53;;
36551;SDS011;22559;54.176;12.102;2023-04-15T08:02:38;18.30;;;15.63;;
36551;SDS011;22559;54.176;12.102;2023-04-15T08:05:05;16.87;;;12.80;;
36551;SDS011;22559;54.176;12.102;2023-04-15T08:07:31;12.63;;;11.07;;
36551;SDS011;22559;54.176;12.102;2023-04-15T08:09:57;11.60;;;10.13;;
36551;SDS011;22559;54.176;12.102;2023-04-15T08:12:23;12.47;;;10.27;;
36551;SDS011;22559;54.176;12.102;2023-04-15T08:14:51;11.67;;;9.93;;
36551;SDS011;22559;54.176;12.102;2023-04-15T08:17:17;11.50;;;10.17;;
36551;SDS011;22559;54.176;12.102;2023-04-15T08:19:43;9.67;;;8.77;;
36551;SDS011;22559;54.176;12.102;2023-04-15T08:22:09;15.73;;;10.53;;
36551;SDS011;22559;54.176;12.102;2023-04-15T08:24:36;11.83;;;10.00;;
36551;SDS011;22559;54.176;12.102;2023-04-15T08:27:02;11.60;;;10.33;;
36551;SDS011;22559;54.176;12.102;2023-04-15T08:29:29;12.83;;;10.17;;
36551;SDS011;22559;54.176;12.102;2023-04-15T08:31:55;15.83;;;10.10;;
36551;SDS011;22559;54.176;12.102;2023-04-15T08:34:22;12.40;;;10.43;;
36551;SDS011;22559;54.176;12.102;2023-04-15T08:36:48;11.80;;;10.17;;
36551;SDS011;22559;54.176;12.102;2023-04-15T08:39:13;12.80;;;10.17;;
36551;SDS011;22559;54.176;12.102;2023-04-15T08:41:44;12.57;;;10.60;;
36551;SDS011;22559;54.176;12.102;2023-04-15T08:44:13;12.10;;;10.50;;
36551;SDS011;22559;54.176;12.102;2023-04-15T08:46:40;15.80;;;12.13;;
36551;SDS011;22559;54.176;12.102;2023-04-15T08:49:09;14.60;;;12.00;;
36551;SDS011;22559;54.176;12.102;2023-04-15T08:51:37;17.70;;;13.13;;
36551;SDS011;22559;54.176;12.102;2023-04-15T08:54:04;17.17;;;13.17;;
36551;SDS011;22559;54.176;12.102;2023-04-15T08:56:31;18.07;;;14.30;;
36551;SDS011;22559;54.176;12.102;2023-04-15T08:58:57;18.27;;;14.07;;
36551;SDS011;22559;54.176;12.102;2023-04-15T09:01:23;19.47;;;15.13;;
36551;SDS011;22559;54.176;12.102;2023-04-15T09:03:49;21.90;;;14.90;;
36551;SDS011;22559;54.176;12.102;2023-04-15T09:06:16;22.73;;;16.70;;
36551;SDS011;22559;54.176;12.102;2023-04-15T09:08:42;26.17;;;17.07;;
36551;SDS011;22559;54.176;12.102;2023-04-15T09:11:08;21.33;;;16.07;;
36551;SDS011;22559;54.176;12.102;2023-04-15T09:13:34;23.63;;;17.07;;
36551;SDS011;22559;54.176;12.102;2023-04-15T09:16:00;23.17;;;17.63;;
36551;SDS011;22559;54.176;12.102;2023-04-15T09:18:31;25.33;;;17.73;;
36551;SDS011;22559;54.176;12.102;2023-04-15T09:21:09;25.77;;;18.23;;
36551;SDS011;22559;54.176;12.102;2023-04-15T09:23:36;23.20;;;16.67;;
36551;SDS011;22559;54.176;12.102;2023-04-15T09:26:05;27.13;;;17.47;;
36551;SDS011;22559;54.176;12.102;2023-04-15T09:28:31;25.37;;;17.00;;
36551;SDS011;22559;54.176;12.102;2023-04-15T09:30:57;26.37;;;18.40;;
36551;SDS011;22559;54.176;12.102;2023-04-15T09:33:24;24.63;;;17.67;;
36551;SDS011;22559;54.176;12.102;2023-04-15T09:36:03;27.57;;;17.93;;
36551;SDS011;22559;54.176;12.102;2023-04-15T09:38:30;25.40;;;16.70;;
36551;SDS011;22559;54.176;12.102;2023-04-15T09:40:56;23.97;;;17.97;;
36551;SDS011;22559;54.176;12.102;2023-04-15T09:43:35;26.03;;;17.63;;
36551;SDS011;22559;54.176;12.102;2023-04-15T09:46:03;26.57;;;18.63;;
36551;SDS011;22559;54.176;12.102;2023-04-15T09:48:29;26.67;;;18.27;;
36551;SDS011;22559;54.176;12.102;2023-04-15T09:50:59;25.13;;;18.40;;
36551;SDS011;22559;54.176;12.102;2023-04-15T09:53:26;31.37;;;18.27;;
36551;SDS011;22559;54.176;12.102;2023-04-15T09:55:56;28.37;;;18.50;;
36551;SDS011;22559;54.176;12.102;2023-04-15T09:58:23;31.27;;;18.97;;
36551;SDS011;22559;54.176;12.102;2023-04-15T10:00:51;26.40;;;18.17;;
36551;SDS011;22559;54.176;12.102;2023-04-15T10:03:25;24.30;;;19.00;;
36551;SDS011;22559;54.176;12.102;2023-04-15T10:05:52;24.03;;;18.57;;
36551;SDS011;22559;54.176;12.102;2023-04-15T10:08:20;27.27;;;18.63;;
36551;SDS011;22559;54.176;12.102;2023-04-15T10:10:48;26.53;;;18.30;;
36551;SDS011;22559;54.176;12.102;2023-04-15T10:13:15;24.90;;;18.03;;
36551;SDS011;22559;54.176;12.102;2023-04-15T10:16:01;27.05;;;18.55;;
36551;SDS011;22559;54.176;12.102;2023-04-15T10:18:35;23.67;;;18.23;;
36551;SDS011;22559;54.176;12.102;2023-04-15T10:21:04;25.90;;;18.88;;
36551;SDS011;22559;54.176;12.102;2023-04-15T10:23:32;27.33;;;18.10;;
36551;SDS011;22559;54.176;12.102;2023-04-15T10:25:58;25.13;;;17.65;;
36551;SDS011;22559;54.176;12.102;2023-04-15T10:28:24;24.13;;;18.60;;
36551;SDS011;22559;54.176;12.102;2023-04-15T10:30:51;27.15;;;20.27;;
36551;SDS011;22559;54.176;12.102;2023-04-15T10:33:17;27.05;;;19.60;;
36551;SDS011;22559;54.176;12.102;2023-04-15T10:35:45;27.48;;;20.58;;
36551;SDS011;22559;54.176;12.102;2023-04-15T10:43:55;28.83;;;20.98;;
36551;SDS011;22559;54.176;12.102;2023-04-15T10:49:13;26.70;;;19.90;;
36551;SDS011;22559;54.176;12.102;2023-04-15T10:51:44;26.10;;;19.70;;
36551;SDS011;22559;54.176;12.102;2023-04-15T10:54:15;25.40;;;19.13;;
36551;SDS011;22559;54.176;12.102;2023-04-15T10:59:37;28.60;;;20.17;;
36551;SDS011;22559;54.176;12.102;2023-04-15T11:02:39;29.50;;;20.65;;
36551;SDS011;22559;54.176;12.102;2023-04-15T11:08:06;30.48;;;19.98;;
36551;SDS011;22559;54.176;12.102;2023-04-15T11:13:14;31.00;;;19.80;;
36551;SDS011;22559;54.176;12.102;2023-04-15T11:15:42;27.25;;;19.80;;
36551;SDS011;22559;54.176;12.102;2023-04-15T11:18:10;27.38;;;19.65;;
36551;SDS011;22559;54.176;12.102;2023-04-15T11:20:46;25.83;;;19.90;;
36551;SDS011;22559;54.176;12.102;2023-04-15T11:23:14;27.95;;;19.48;;
36551;SDS011;22559;54.176;12.102;2023-04-15T11:25:42;25.75;;;19.52;;
36551;SDS011;22559;54.176;12.102;2023-04-15T11:28:08;27.13;;;19.08;;
36551;SDS011;22559;54.176;12.102;2023-04-15T11:30:34;26.35;;;17.95;;
36551;SDS011;22559;54.176;12.102;2023-04-15T11:33:04;26.30;;;19.60;;
36551;SDS011;22559;54.176;12.102;2023-04-15T11:35:32;23.75;;;17.92;;
36551;SDS011;22559;54.176;12.102;2023-04-15T11:38:01;21.15;;;17.70;;
36551;SDS011;22559;54.176;12.102;2023-04-15T11:40:33;24.30;;;17.67;;
36551;SDS011;22559;54.176;12.102;2023-04-15T11:43:12;26.20;;;17.92;;
36551;SDS011;22559;54.176;12.102;2023-04-15T11:48:21;22.75;;;17.25;;
36551;SDS011;22559;54.176;12.102;2023-04-15T11:53:35;21.63;;;17.25;;
36551;SDS011;22559;54.176;12.102;2023-04-15T11:56:01;23.33;;;17.45;;
36551;SDS011;22559;54.176;12.102;2023-04-15T11:58:28;22.63;;;16.35;;
36551;SDS011;22559;54.176;12.102;2023-04-15T12:00:54;23.50;;;16.98;;
36551;SDS011;22559;54.176;12.102;2023-04-15T12:03:27;22.20;;;16.23;;
36551;SDS011;22559;54.176;12.102;2023-04-15T12:16:32;21.23;;;15.85;;
36551;SDS011;22559;54.176;12.102;2023-04-15T12:18:59;44.72;;;30.23;;
36551;SDS011;22559;54.176;12.102;2023-04-15T12:21:32;47.72;;;33.05;;
36551;SDS011;22559;54.176;12.102;2023-04-15T12:24:00;20.08;;;16.23;;
36551;SDS011;22559;54.176;12.102;2023-04-15T12:26:35;22.60;;;16.60;;
36551;SDS011;22559;54.176;12.102;2023-04-15T12:29:03;22.08;;;16.45;;
36551;SDS011;22559;54.176;12.102;2023-04-15T12:31:30;56.05;;;43.33;;
36551;SDS011;22559;54.176;12.102;2023-04-15T12:33:57;24.75;;;18.42;;
36551;SDS011;22559;54.176;12.102;2023-04-15T12:36:32;21.92;;;16.25;;
36551;SDS011;22559;54.176;12.102;2023-04-15T12:39:03;22.33;;;16.48;;
36551;SDS011;22559;54.176;12.102;2023-04-15T12:41:30;21.73;;;15.52;;
36551;SDS011;22559;54.176;12.102;2023-04-15T12:43:56;24.05;;;15.98;;
36551;SDS011;22559;54.176;12.102;2023-04-15T12:46:22;22.23;;;16.15;;
36551;SDS011;22559;54.176;12.102;2023-04-15T12:48:48;19.65;;;15.77;;
36551;SDS011;22559;54.176;12.102;2023-04-15T12:51:15;20.25;;;15.60;;
36551;SDS011;22559;54.176;12.102;2023-04-15T12:53:40;21.63;;;14.93;;
36551;SDS011;22559;54.176;12.102;2023-04-15T12:56:06;22.42;;;16.13;;
36551;SDS011;22559;54.176;12.102;2023-04-15T12:58:32;23.38;;;16.33;;
36551;SDS011;22559;54.176;12.102;2023-04-15T13:00:57;20.43;;;16.63;;
36551;SDS011;22559;54.176;12.102;2023-04-15T13:03:23;23.13;;;16.60;;
36551;SDS011;22559;54.176;12.102;2023-04-15T13:05:52;23.23;;;15.97;;
36551;SDS011;22559;54.176;12.102;2023-04-15T13:08:17;20.30;;;15.50;;
36551;SDS011;22559;54.176;12.102;2023-04-15T13:10:43;20.90;;;14.73;;
36551;SDS011;22559;54.176;12.102;2023-04-15T13:13:09;21.90;;;15.00;;
36551;SDS011;22559;54.176;12.102;2023-04-15T13:15:34;20.43;;;14.73;;
36551;SDS011;22559;54.176;12.102;2023-04-15T13:18:03;20.70;;;14.47;;
36551;SDS011;22559;54.176;12.102;2023-04-15T13:20:30;20.67;;;15.23;;
36551;SDS011;22559;54.176;12.102;2023-04-15T13:22:56;19.43;;;14.93;;
36551;SDS011;22559;54.176;12.102;2023-04-15T13:25:21;18.63;;;15.30;;
36551;SDS011;22559;54.176;12.102;2023-04-15T13:27:48;40.40;;;30.97;;
36551;SDS011;22559;54.176;12.102;2023-04-15T13:30:14;45.90;;;29.43;;
36551;SDS011;22559;54.176;12.102;2023-04-15T13:32:39;60.03;;;41.17;;
36551;SDS011;22559;54.176;12.102;2023-04-15T13:35:05;21.53;;;16.13;;
36551;SDS011;22559;54.176;12.102;2023-04-15T13:37:31;22.63;;;15.97;;
36551;SDS011;22559;54.176;12.102;2023-04-15T13:39:56;23.10;;;15.33;;
36551;SDS011;22559;54.176;12.102;2023-04-15T13:42:22;23.73;;;16.17;;
36551;SDS011;22559;54.176;12.102;2023-04-15T13:44:48;20.63;;;14.93;;
36551;SDS011;22559;54.176;12.102;2023-04-15T13:47:18;20.77;;;14.77;;
36551;SDS011;22559;54.176;12.102;2023-04-15T13:49:44;21.90;;;16.13;;
36551;SDS011;22559;54.176;12.102;2023-04-15T13:52:10;22.20;;;15.47;;
36551;SDS011;22559;54.176;12.102;2023-04-15T13:54:36;23.87;;;16.17;;
36551;SDS011;22559;54.176;12.102;2023-04-15T13:57:02;23.23;;;15.90;;
36551;SDS011;22559;54.176;12.102;2023-04-15T13:59:28;21.20;;;15.40;;
36551;SDS011;22559;54.176;12.102;2023-04-15T14:01:53;21.27;;;15.80;;
36551;SDS011;22559;54.176;12.102;2023-04-15T14:04:19;22.63;;;17.00;;
36551;SDS011;22559;54.176;12.102;2023-04-15T14:06:44;23.23;;;15.73;;
36551;SDS011;22559;54.176;12.102;2023-04-15T14:09:10;19.87;;;15.33;;
36551;SDS011;22559;54.176;12.102;2023-04-15T14:11:39;22.57;;;15.70;;
36551;SDS011;22559;54.176;12.102;2023-04-15T14:14:04;28.43;;;15.33;;
36551;SDS011;22559;54.176;12.102;2023-04-15T14:16:33;25.80;;;15.33;;
36551;SDS011;22559;54.176;12.102;2023-04-15T14:19:00;24.47;;;15.97;;
36551;SDS011;22559;54.176;12.102;2023-04-15T14:21:26;22.40;;;15.17;;
36551;SDS011;22559;54.176;12.102;2023-04-15T14:23:53;24.17;;;15.83;;
36551;SDS011;22559;54.176;12.102;2023-04-15T14:26:18;22.50;;;15.07;;
36551;SDS011;22559;54.176;12.102;2023-04-15T14:28:44;20.90;;;15.27;;
36551;SDS011;22559;54.176;12.102;2023-04-15T14:31:12;21.40;;;14.87;;
36551;SDS011;22559;54.176;12.102;2023-04-15T14:33:38;22.17;;;14.77;;
36551;SDS011;22559;54.176;12.102;2023-04-15T14:36:03;19.30;;;14.17;;
36551;SDS011;22559;54.176;12.102;2023-04-15T14:38:30;22.90;;;14.47;;